Time;durP1;ratioP1;P1;durP2;ratioP2;P2;SDS_P1;SDS_P2;PMS_P1;PMS_P2;Temp;Humidity;BMP_temperature;BMP_pressure;BME280_temperature;BME280_humidity;BME280_pressure;Samples;Min_cycle;Max_cycle;Signal;HPM_P1;HPM_P2
2022/02/27 00:00:56;;;;;;;;;;;22.40;27.50;;;;;;5090688;28;19967;-70
2022/02/27 00:03:23;;;;;;;;;;;22.40;27.50;;;;;;5087000;28;19928;-70
2022/02/27 00:05:50;;;;;;;;;;;22.40;27.50;;;;;;5090567;28;19935;-70
2022/02/27 00:08:17;;;;;;;;;;;22.40;27.50;;;;;;5086673;28;20369;-70
2022/02/27 00:10:44;;;;;;;;;;;22.30;27.50;;;;;;5090121;28;20432;-70
2022/02/27 00:13:12;;;;;;;;;;;22.30;27.50;;;;;;5087584;28;19924;-71
2022/02/27 00:15:39;;;;;;;;;;;22.30;27.50;;;;;;5089896;28;20388;-71
2022/02/27 00:18:06;;;;;;;;;;;22.30;27.50;;;;;;5087335;28;20015;-71
2022/02/27 00:20:33;;;;;;;;;;;22.30;27.50;;;;;;5089625;28;19924;-71
2022/02/27 00:23:00;;;;;;;;;;;22.30;27.60;;;;;;5086659;28;19963;-70
2022/02/27 00:25:27;;;;;;;;;;;22.30;27.60;;;;;;5089912;28;19927;-70
2022/02/27 00:27:54;;;;;;;;;;;22.30;27.60;;;;;;5087084;28;20446;-70
2022/02/27 00:33:27;;;;;;;;;;;22.30;27.60;;;;;;5086792;28;20377;-70
2022/02/27 00:35:54;;;;;;;;;;;22.30;27.60;;;;;;5089864;28;19924;-70
2022/02/27 00:38:21;;;;;;;;;;;22.30;27.70;;;;;;5087084;28;20327;-70
2022/02/27 00:40:49;;;;;;;;;;;22.30;27.70;;;;;;5071953;28;19924;-70
2022/02/27 00:43:18;;;;;;;;;;;22.30;27.70;;;;;;5086954;28;19963;-70
2022/02/27 00:45:45;;;;;;;;;;;22.20;27.60;;;;;;5089758;28;20378;-71
2022/02/27 00:48:12;;;;;;;;;;;22.30;27.70;;;;;;5086975;28;19924;-71
2022/02/27 00:50:39;;;;;;;;;;;22.30;27.80;;;;;;5089734;28;20335;-71
2022/02/27 00:53:08;;;;;;;;;;;22.30;27.80;;;;;;5087168;28;19985;-70
2022/02/27 00:56:07;;;;;;;;;;;22.30;27.80;;;;;;5089495;28;20296;-73
2022/02/27 00:58:34;;;;;;;;;;;22.30;27.80;;;;;;5086750;28;20406;-70
2022/02/27 01:01:01;;;;;;;;;;;22.20;27.70;;;;;;5089887;28;19928;-71
2022/02/27 01:03:28;;;;;;;;;;;22.30;27.80;;;;;;5086404;28;20395;-70
2022/02/27 01:05:55;;;;;;;;;;;22.20;27.80;;;;;;5089777;28;19924;-70
2022/02/27 01:08:22;;;;;;;;;;;22.20;27.80;;;;;;5086538;28;19924;-70
2022/02/27 01:10:49;;;;;;;;;;;22.20;27.80;;;;;;5089634;28;19969;-70
2022/02/27 01:13:16;;;;;;;;;;;22.20;27.80;;;;;;5086968;28;19924;-70
2022/02/27 01:15:43;;;;;;;;;;;22.20;27.80;;;;;;5089632;28;19928;-71
2022/02/27 01:18:10;;;;;;;;;;;22.20;27.80;;;;;;5086138;28;19924;-71
2022/02/27 01:20:37;;;;;;;;;;;22.20;27.80;;;;;;5089907;28;19924;-71
2022/02/27 01:23:05;;;;;;;;;;;22.20;27.80;;;;;;5089828;28;19935;-71
2022/02/27 01:25:32;;;;;;;;;;;22.20;28.30;;;;;;5093002;28;19981;-71
2022/02/27 01:27:59;;;;;;;;;;;22.20;27.90;;;;;;5072171;28;20114;-71
2022/02/27 01:33:34;;;;;;;;;;;22.20;27.90;;;;;;5088183;28;19924;-71
2022/02/27 01:36:02;;;;;;;;;;;22.20;27.90;;;;;;5093163;28;20369;-71
2022/02/27 01:38:29;;;;;;;;;;;22.20;27.90;;;;;;5090378;28;19942;-70
2022/02/27 01:40:55;;;;;;;;;;;22.20;27.90;;;;;;5092636;28;20374;-71
2022/02/27 01:43:23;;;;;;;;;;;22.20;27.90;;;;;;5089378;28;19924;-71
2022/02/27 01:45:49;;;;;;;;;;;22.20;27.90;;;;;;5092396;28;19964;-71
2022/02/27 01:48:16;;;;;;;;;;;22.20;27.90;;;;;;5090190;28;19924;-71
2022/02/27 01:50:43;;;;;;;;;;;22.20;27.90;;;;;;5092601;28;19978;-74
2022/02/27 01:53:10;;;;;;;;;;;22.20;27.90;;;;;;5089001;28;19986;-71
2022/02/27 01:55:51;;;;;;;;;;;22.20;27.90;;;;;;5092744;28;19950;-70
2022/02/27 01:58:18;;;;;;;;;;;22.20;27.90;;;;;;5089577;28;19924;-71
2022/02/27 02:00:45;;;;;;;;;;;22.20;27.90;;;;;;5092530;28;19977;-73
2022/02/27 02:03:12;;;;;;;;;;;22.20;27.90;;;;;;5089823;28;20324;-71
2022/02/27 02:05:39;;;;;;;;;;;22.20;27.90;;;;;;5092534;28;19928;-70
2022/02/27 02:08:06;;;;;;;;;;;22.20;28.00;;;;;;5089213;28;19960;-71
2022/02/27 02:10:33;;;;;;;;;;;22.20;28.00;;;;;;5074072;28;19924;-71
2022/02/27 02:13:00;;;;;;;;;;;22.20;28.00;;;;;;5090000;28;19928;-71
2022/02/27 02:15:27;;;;;;;;;;;22.20;28.00;;;;;;5092111;28;19985;-70
2022/02/27 02:17:54;;;;;;;;;;;22.20;28.00;;;;;;5089245;28;19931;-70
2022/02/27 02:20:22;;;;;;;;;;;22.20;28.00;;;;;;5091461;28;20334;-71
2022/02/27 02:22:49;;;;;;;;;;;22.20;28.10;;;;;;5089731;28;19925;-71
2022/02/27 02:25:16;;;;;;;;;;;22.20;28.10;;;;;;5091287;28;20146;-71
2022/02/27 02:27:43;;;;;;;;;;;22.10;28.00;;;;;;5071552;28;20392;-71
2022/02/27 02:33:16;;;;;;;;;;;22.10;28.00;;;;;;5088387;28;19954;-71
2022/02/27 02:35:45;;;;;;;;;;;22.10;28.00;;;;;;5092007;28;20509;-71
2022/02/27 02:38:12;;;;;;;;;;;22.10;28.00;;;;;;5088563;28;19971;-71
2022/02/27 02:40:39;;;;;;;;;;;22.10;28.00;;;;;;5091488;28;19936;-71
2022/02/27 02:43:05;;;;;;;;;;;22.10;28.00;;;;;;5089212;28;19924;-71
2022/02/27 02:45:32;;;;;;;;;;;22.10;28.30;;;;;;5091485;28;19935;-71
2022/02/27 02:48:00;;;;;;;;;;;22.10;28.10;;;;;;5088401;28;19924;-72
2022/02/27 02:50:27;;;;;;;;;;;22.10;28.00;;;;;;5091342;28;19924;-71
2022/02/27 02:52:56;;;;;;;;;;;22.10;28.00;;;;;;5088301;28;19969;-71
2022/02/27 02:58:28;;;;;;;;;;;22.10;28.00;;;;;;5088662;28;20018;-71
2022/02/27 03:00:55;;;;;;;;;;;22.10;28.00;;;;;;5091286;28;20403;-73
2022/02/27 03:03:22;;;;;;;;;;;22.10;28.00;;;;;;5088301;28;19932;-71
2022/02/27 03:05:51;;;;;;;;;;;22.10;28.00;;;;;;5091273;28;20308;-71
2022/02/27 03:08:18;;;;;;;;;;;22.10;28.00;;;;;;5088011;28;19935;-71
2022/02/27 03:10:45;;;;;;;;;;;22.10;28.00;;;;;;5090973;28;19928;-71
2022/02/27 03:13:12;;;;;;;;;;;22.10;28.00;;;;;;5088359;28;19929;-71
2022/02/27 03:15:39;;;;;;;;;;;22.10;28.10;;;;;;5091090;28;19959;-71
2022/02/27 03:18:06;;;;;;;;;;;22.10;28.10;;;;;;5088012;28;20438;-71
2022/02/27 03:20:33;;;;;;;;;;;22.10;28.00;;;;;;5090549;28;19931;-71
2022/02/27 03:23:00;;;;;;;;;;;22.10;28.10;;;;;;5087718;28;19977;-71
2022/02/27 03:25:28;;;;;;;;;;;22.10;28.10;;;;;;5090963;28;20016;-71
2022/02/27 03:27:55;;;;;;;;;;;22.10;28.10;;;;;;5088004;28;19963;-71
2022/02/27 03:33:26;;;;;;;;;;;22.10;28.10;;;;;;5088003;28;19976;-71
2022/02/27 03:35:53;;;;;;;;;;;22.10;28.10;;;;;;5091004;28;19993;-71
2022/02/27 03:38:20;;;;;;;;;;;22.10;28.20;;;;;;5087841;28;19978;-72
2022/02/27 03:40:47;;;;;;;;;;;22.10;28.20;;;;;;5090644;28;19975;-71
2022/02/27 03:43:14;;;;;;;;;;;22.10;28.20;;;;;;5087422;28;19928;-71
2022/02/27 03:45:41;;;;;;;;;;;22.10;28.20;;;;;;5090279;28;19924;-71
2022/02/27 03:48:08;;;;;;;;;;;22.10;28.20;;;;;;5087244;28;19967;-71
2022/02/27 03:50:35;;;;;;;;;;;22.10;28.20;;;;;;5090599;28;20304;-71
2022/02/27 03:53:02;;;;;;;;;;;22.10;28.20;;;;;;5087923;28;19924;-71
2022/02/27 03:58:18;;;;;;;;;;;22.10;28.20;;;;;;5087686;28;20028;-71
2022/02/27 04:00:45;;;;;;;;;;;22.10;28.20;;;;;;5090452;28;19924;-71
2022/02/27 04:03:13;;;;;;;;;;;22.10;28.20;;;;;;5086984;28;19924;-71
2022/02/27 04:05:40;;;;;;;;;;;22.10;28.20;;;;;;5090415;28;19924;-71
2022/02/27 04:08:08;;;;;;;;;;;22.10;28.20;;;;;;5087666;28;19936;-71
2022/02/27 04:10:35;;;;;;;;;;;22.10;28.30;;;;;;5089691;28;19925;-71
2022/02/27 04:13:02;;;;;;;;;;;22.10;28.30;;;;;;5087708;28;19928;-71
2022/02/27 04:15:29;;;;;;;;;;;22.00;28.20;;;;;;5090112;28;19985;-71
2022/02/27 04:17:56;;;;;;;;;;;22.10;28.30;;;;;;5087334;28;19925;-71
2022/02/27 04:20:23;;;;;;;;;;;22.00;28.20;;;;;;5089918;28;19928;-71
2022/02/27 04:22:51;;;;;;;;;;;22.10;28.30;;;;;;5087439;28;19931;-71
2022/02/27 04:25:18;;;;;;;;;;;22.00;28.20;;;;;;5089575;28;19924;-71
2022/02/27 04:27:45;;;;;;;;;;;22.00;28.20;;;;;;5087516;28;20499;-71
2022/02/27 04:33:16;;;;;;;;;;;22.00;28.20;;;;;;5086949;28;19982;-72
2022/02/27 04:35:43;;;;;;;;;;;22.00;28.30;;;;;;5090300;28;20274;-71
2022/02/27 04:38:10;;;;;;;;;;;22.00;28.30;;;;;;5087233;28;20270;-71
2022/02/27 04:40:37;;;;;;;;;;;22.00;28.30;;;;;;5089900;28;19924;-71
2022/02/27 04:43:04;;;;;;;;;;;22.00;28.30;;;;;;5069387;28;19924;-71
2022/02/27 04:45:31;;;;;;;;;;;22.00;28.20;;;;;;5090043;28;19989;-71
2022/02/27 04:47:58;;;;;;;;;;;22.00;28.30;;;;;;5087513;28;20278;-71
2022/02/27 04:50:26;;;;;;;;;;;22.00;28.30;;;;;;5089369;28;19979;-71
2022/02/27 04:52:52;;;;;;;;;;;22.00;28.30;;;;;;5087092;28;19982;-71
2022/02/27 04:58:24;;;;;;;;;;;22.00;28.30;;;;;;5090544;28;19932;-71
2022/02/27 05:00:51;;;;;;;;;;;22.00;28.30;;;;;;5093725;28;19975;-71
2022/02/27 05:03:18;;;;;;;;;;;22.00;28.30;;;;;;5090406;28;20241;-71
2022/02/27 05:05:45;;;;;;;;;;;22.00;28.30;;;;;;5093577;28;19924;-71
2022/02/27 05:08:12;;;;;;;;;;;22.00;28.30;;;;;;5090184;28;20520;-70
2022/02/27 05:10:39;;;;;;;;;;;22.00;28.30;;;;;;5093479;28;19947;-71
2022/02/27 05:13:06;;;;;;;;;;;22.00;28.30;;;;;;5091074;28;19969;-71
2022/02/27 05:15:33;;;;;;;;;;;22.00;28.30;;;;;;5092936;28;19989;-71
2022/02/27 05:18:00;;;;;;;;;;;22.00;28.30;;;;;;5089982;28;19928;-71
2022/02/27 05:20:27;;;;;;;;;;;22.00;28.30;;;;;;5093548;28;20031;-71
2022/02/27 05:22:54;;;;;;;;;;;22.00;28.40;;;;;;5090757;28;19969;-71
2022/02/27 05:25:22;;;;;;;;;;;22.00;28.40;;;;;;5093045;28;20088;-71
2022/02/27 05:27:51;;;;;;;;;;;22.00;28.30;;;;;;5091304;28;20569;-71
2022/02/27 05:33:22;;;;;;;;;;;22.00;28.40;;;;;;5090317;28;19924;-72
2022/02/27 05:35:49;;;;;;;;;;;22.00;28.40;;;;;;5093081;28;19960;-71
2022/02/27 05:38:16;;;;;;;;;;;22.00;28.30;;;;;;5090219;28;20262;-71
2022/02/27 05:40:46;;;;;;;;;;;22.00;28.40;;;;;;5092756;28;19946;-71
2022/02/27 05:43:13;;;;;;;;;;;22.00;28.30;;;;;;5090309;28;19928;-71
2022/02/27 05:45:40;;;;;;;;;;;22.00;28.30;;;;;;5092626;28;19924;-71
2022/02/27 05:48:07;;;;;;;;;;;22.00;28.30;;;;;;5089574;28;20011;-71
2022/02/27 05:50:34;;;;;;;;;;;22.00;28.30;;;;;;5092608;28;19953;-72
2022/02/27 05:53:01;;;;;;;;;;;22.00;28.40;;;;;;5089978;28;19924;-71
2022/02/27 05:58:35;;;;;;;;;;;22.00;28.30;;;;;;5089860;28;19932;-71
2022/02/27 06:01:02;;;;;;;;;;;22.00;28.40;;;;;;5074614;28;19924;-72
2022/02/27 06:03:29;;;;;;;;;;;22.00;28.40;;;;;;5089653;28;20404;-71
2022/02/27 06:05:56;;;;;;;;;;;22.00;28.40;;;;;;5092335;28;19931;-71
2022/02/27 06:08:23;;;;;;;;;;;22.00;28.30;;;;;;5088855;28;19973;-71
2022/02/27 06:10:50;;;;;;;;;;;22.00;28.10;;;;;;5092322;28;19970;-71
2022/02/27 06:13:17;;;;;;;;;;;22.00;28.00;;;;;;5089050;28;19927;-71
2022/02/27 06:15:44;;;;;;;;;;;21.90;28.00;;;;;;5092443;28;19924;-71
2022/02/27 06:18:11;;;;;;;;;;;21.90;28.00;;;;;;5088832;28;19930;-71
2022/02/27 06:20:38;;;;;;;;;;;21.90;28.00;;;;;;5092159;28;20100;-71
2022/02/27 06:23:06;;;;;;;;;;;21.90;28.00;;;;;;5089081;28;19924;-71
2022/02/27 06:25:33;;;;;;;;;;;21.90;28.00;;;;;;5091850;28;20453;-71
2022/02/27 06:28:00;;;;;;;;;;;22.00;28.00;;;;;;5089229;28;20015;-71
2022/02/27 06:33:31;;;;;;;;;;;22.00;27.80;;;;;;5088889;28;19924;-71
2022/02/27 06:35:58;;;;;;;;;;;22.10;27.70;;;;;;5091803;28;19959;-71
2022/02/27 06:38:31;;;;;;;;;;;22.10;27.70;;;;;;5089130;28;20327;-72
2022/02/27 06:40:58;;;;;;;;;;;22.10;27.60;;;;;;5092128;28;20266;-71
2022/02/27 06:43:26;;;;;;;;;;;22.20;27.60;;;;;;5089015;28;19928;-72
2022/02/27 06:45:53;;;;;;;;;;;22.20;27.50;;;;;;5091674;28;19928;-71
2022/02/27 06:48:20;;;;;;;;;;;22.30;27.50;;;;;;5088530;28;19977;-72
2022/02/27 06:50:47;;;;;;;;;;;22.30;27.40;;;;;;5091607;28;19967;-72
2022/02/27 06:53:14;;;;;;;;;;;22.40;27.40;;;;;;5088646;28;20300;-71
2022/02/27 06:55:41;;;;;;;;;;;22.40;27.30;;;;;;5091489;28;20373;-71
2022/02/27 06:58:08;;;;;;;;;;;22.40;27.30;;;;;;5088483;28;20181;-71
2022/02/27 07:00:35;;;;;;;;;;;22.50;27.30;;;;;;5091120;28;20361;-72
2022/02/27 07:03:03;;;;;;;;;;;22.50;27.20;;;;;;5088342;28;19939;-71
2022/02/27 07:05:50;;;;;;;;;;;22.60;27.20;;;;;;5091005;28;20031;-71
2022/02/27 07:08:17;;;;;;;;;;;22.60;27.20;;;;;;5087707;28;19928;-71
2022/02/27 07:10:44;;;;;;;;;;;22.70;27.20;;;;;;5091644;28;19993;-71
2022/02/27 07:13:13;;;;;;;;;;;22.70;27.10;;;;;;5070499;28;20074;-71
2022/02/27 07:15:40;;;;;;;;;;;22.70;27.10;;;;;;5091178;28;20111;-71
2022/02/27 07:18:07;;;;;;;;;;;22.80;27.00;;;;;;5087696;28;20365;-71
2022/02/27 07:20:34;;;;;;;;;;;22.80;27.00;;;;;;5091152;28;20031;-71
2022/02/27 07:23:01;;;;;;;;;;;22.90;27.00;;;;;;5087890;28;19932;-71
2022/02/27 07:25:28;;;;;;;;;;;22.90;27.00;;;;;;5090646;28;19924;-71
2022/02/27 07:27:55;;;;;;;;;;;22.90;26.90;;;;;;5088262;28;19924;-72
2022/02/27 07:33:26;;;;;;;;;;;23.00;26.90;;;;;;5087982;28;20356;-72
2022/02/27 07:35:53;;;;;;;;;;;23.10;26.90;;;;;;5090836;28;19928;-72
2022/02/27 07:38:20;;;;;;;;;;;23.10;26.90;;;;;;5087850;28;19975;-71
2022/02/27 07:40:49;;;;;;;;;;;23.10;26.90;;;;;;5090863;28;19924;-71
2022/02/27 07:43:16;;;;;;;;;;;23.20;26.90;;;;;;5087697;28;20021;-71
2022/02/27 07:45:43;;;;;;;;;;;23.20;26.80;;;;;;5090412;28;19928;-71
2022/02/27 07:48:10;;;;;;;;;;;23.20;26.80;;;;;;5087572;28;19931;-71
2022/02/27 07:50:37;;;;;;;;;;;23.20;26.80;;;;;;5090853;28;19969;-72
2022/02/27 07:53:04;;;;;;;;;;;23.20;26.80;;;;;;5087655;28;19970;-71
2022/02/27 07:58:16;;;;;;;;;;;23.30;26.80;;;;;;5087376;28;20270;-71
2022/02/27 08:00:43;;;;;;;;;;;23.30;26.80;;;;;;5072341;28;19971;-71
2022/02/27 08:03:11;;;;;;;;;;;23.30;26.80;;;;;;5087636;28;19930;-71
2022/02/27 08:05:40;;;;;;;;;;;23.40;26.80;;;;;;5090108;28;19924;-72
2022/02/27 08:08:07;;;;;;;;;;;23.40;26.80;;;;;;5069673;28;19932;-71
2022/02/27 08:10:34;;;;;;;;;;;23.40;26.80;;;;;;5090117;28;19924;-71
2022/02/27 08:13:01;;;;;;;;;;;23.40;26.70;;;;;;5087119;28;19928;-71
2022/02/27 08:15:30;;;;;;;;;;;23.40;26.70;;;;;;5089765;28;19970;-71
2022/02/27 08:17:57;;;;;;;;;;;23.50;26.80;;;;;;5086812;28;20361;-71
2022/02/27 08:20:24;;;;;;;;;;;23.50;26.80;;;;;;5089615;28;19932;-72
2022/02/27 08:22:51;;;;;;;;;;;23.50;26.70;;;;;;5087267;28;19993;-72
2022/02/27 08:25:18;;;;;;;;;;;23.50;26.70;;;;;;5089185;28;19969;-71
2022/02/27 08:27:45;;;;;;;;;;;23.50;26.70;;;;;;5087238;28;19971;-71
2022/02/27 08:33:17;;;;;;;;;;;23.60;26.70;;;;;;5091352;28;20523;-71
2022/02/27 08:35:44;;;;;;;;;;;23.60;26.70;;;;;;5094295;28;19928;-71
2022/02/27 08:38:11;;;;;;;;;;;23.60;26.70;;;;;;5090828;28;19998;-71
2022/02/27 08:40:38;;;;;;;;;;;23.60;26.70;;;;;;5094545;28;19986;-72
2022/02/27 08:43:05;;;;;;;;;;;23.60;26.70;;;;;;5091170;28;20024;-71
2022/02/27 08:45:32;;;;;;;;;;;23.60;26.70;;;;;;5093923;28;19973;-71
2022/02/27 08:47:59;;;;;;;;;;;23.60;26.60;;;;;;5091189;28;20088;-72
2022/02/27 08:50:26;;;;;;;;;;;23.70;26.60;;;;;;5093414;28;19969;-72
2022/02/27 08:52:53;;;;;;;;;;;23.70;26.60;;;;;;5091065;28;19928;-72
2022/02/27 08:58:24;;;;;;;;;;;23.70;26.50;;;;;;5090583;28;19967;-72
2022/02/27 09:00:51;;;;;;;;;;;23.80;26.50;;;;;;5093582;28;19925;-72
2022/02/27 09:03:24;;;;;;;;;;;23.80;26.50;;;;;;5091042;28;19924;-72
2022/02/27 09:05:51;;;;;;;;;;;23.80;26.60;;;;;;5093403;28;20327;-72
2022/02/27 09:08:18;;;;;;;;;;;23.80;26.50;;;;;;5090499;28;19924;-72
2022/02/27 09:10:47;;;;;;;;;;;23.80;26.50;;;;;;5093669;28;19928;-72
2022/02/27 09:13:14;;;;;;;;;;;23.80;26.50;;;;;;5090515;28;19981;-72
2022/02/27 09:15:41;;;;;;;;;;;23.80;26.50;;;;;;5093468;28;19923;-72
2022/02/27 09:18:11;;;;;;;;;;;23.90;26.50;;;;;;5090296;28;19924;-72
2022/02/27 09:20:38;;;;;;;;;;;23.80;26.90;;;;;;5093493;28;20001;-71
2022/02/27 09:23:05;;;;;;;;;;;23.90;27.00;;;;;;5090148;28;19924;-72
2022/02/27 09:25:32;;;;;;;;;;;23.90;26.50;;;;;;5092708;28;19990;-73
2022/02/27 09:28:19;;;;;;;;;;;23.90;26.50;;;;;;5090213;28;20028;-72
2022/02/27 09:30:46;;;;;;;;;;;23.90;26.50;;;;;;5093149;28;19924;-72
2022/02/27 09:33:13;;;;;;;;;;;23.90;26.40;;;;;;5090528;28;20301;-73
2022/02/27 09:35:41;;;;;;;;;;;23.90;26.40;;;;;;5093189;28;19924;-72
2022/02/27 09:38:08;;;;;;;;;;;23.90;26.50;;;;;;5090054;28;19928;-72
2022/02/27 09:40:51;;;;;;;;;;;23.90;26.40;;;;;;5075230;28;19931;-72
2022/02/27 09:43:20;;;;;;;;;;;23.90;26.40;;;;;;5071655;28;19963;-72
2022/02/27 09:45:47;;;;;;;;;;;23.90;26.50;;;;;;5093120;28;19951;-72
2022/02/27 09:48:14;;;;;;;;;;;23.90;26.40;;;;;;5089369;28;20003;-72
2022/02/27 09:50:42;;;;;;;;;;;23.90;26.40;;;;;;5092705;28;19924;-72
2022/02/27 09:53:09;;;;;;;;;;;23.90;26.40;;;;;;5090129;28;19977;-72
2022/02/27 09:55:37;;;;;;;;;;;23.90;26.40;;;;;;5092362;28;20438;-72
2022/02/27 09:58:04;;;;;;;;;;;23.90;26.40;;;;;;5089796;28;19967;-72
2022/02/27 10:00:32;;;;;;;;;;;23.90;26.40;;;;;;5092219;28;19971;-72
2022/02/27 10:03:08;;;;;;;;;;;24.00;26.40;;;;;;5090273;28;19924;-72
2022/02/27 10:05:36;;;;;;;;;;;24.00;26.40;;;;;;5092371;28;19970;-72
2022/02/27 10:08:04;;;;;;;;;;;24.10;26.40;;;;;;5088993;28;19928;-74
2022/02/27 10:10:31;;;;;;;;;;;24.10;26.40;;;;;;5092087;28;19985;-72
2022/02/27 10:13:00;;;;;;;;;;;24.10;26.40;;;;;;5089651;28;19971;-71
2022/02/27 10:18:39;;;;;;;;;;;24.10;26.30;;;;;;5088688;28;20369;-72
2022/02/27 10:21:22;;;;;;;;;;;24.10;26.30;;;;;;5092397;28;19931;-72
2022/02/27 10:24:13;;;;;;;;;;;24.10;26.30;;;;;;5102810;28;20373;-72
2022/02/27 10:26:42;;;;;;;;;;;24.10;26.30;;;;;;5091115;28;19947;-72
2022/02/27 10:29:13;;;;;;;;;;;24.20;26.30;;;;;;5089758;28;20415;-72
2022/02/27 10:31:42;;;;;;;;;;;24.20;26.30;;;;;;5090883;28;20106;-72
2022/02/27 10:34:25;;;;;;;;;;;24.20;26.20;;;;;;5089824;28;20116;-72
2022/02/27 10:36:59;;;;;;;;;;;24.20;26.20;;;;;;5090664;28;19978;-71
2022/02/27 10:39:30;;;;;;;;;;;24.30;26.20;;;;;;5089970;28;19924;-71
2022/02/27 10:42:08;;;;;;;;;;;24.30;26.20;;;;;;5090387;28;20397;-71
2022/02/27 10:44:35;;;;;;;;;;;24.30;26.20;;;;;;5090473;28;19928;-71
2022/02/27 10:47:13;;;;;;;;;;;24.30;26.20;;;;;;5089924;28;20012;-71
2022/02/27 10:49:40;;;;;;;;;;;24.30;26.20;;;;;;5090124;28;20351;-72
2022/02/27 10:52:11;;;;;;;;;;;24.30;26.10;;;;;;5090071;28;19950;-71
2022/02/27 10:54:40;;;;;;;;;;;24.30;26.10;;;;;;5090002;28;19970;-71
2022/02/27 10:57:25;;;;;;;;;;;24.30;26.10;;;;;;5089481;28;20199;-71
2022/02/27 10:59:54;;;;;;;;;;;24.30;26.10;;;;;;5090614;28;19970;-71
2022/02/27 11:02:22;;;;;;;;;;;24.30;26.10;;;;;;5089996;28;19928;-71
2022/02/27 11:04:50;;;;;;;;;;;24.30;26.10;;;;;;5089986;28;19981;-72
2022/02/27 11:07:17;;;;;;;;;;;24.30;26.10;;;;;;5089490;28;19935;-72
2022/02/27 11:09:45;;;;;;;;;;;24.40;26.10;;;;;;5105450;28;20369;-71
2022/02/27 11:12:15;;;;;;;;;;;24.40;26.10;;;;;;5089461;28;19944;-71
2022/02/27 11:14:42;;;;;;;;;;;24.40;26.10;;;;;;5089612;28;19931;-71
2022/02/27 11:17:12;;;;;;;;;;;24.40;26.00;;;;;;5090022;28;19924;-72
2022/02/27 11:19:40;;;;;;;;;;;24.50;26.00;;;;;;5089625;28;20007;-71
2022/02/27 11:22:07;;;;;;;;;;;24.50;26.00;;;;;;5089598;28;19924;-71
2022/02/27 11:24:36;;;;;;;;;;;24.50;25.90;;;;;;5089093;28;19928;-71
2022/02/27 11:27:04;;;;;;;;;;;24.50;25.90;;;;;;5089067;28;20381;-71
2022/02/27 11:32:54;;;;;;;;;;;24.60;25.90;;;;;;5088605;28;20321;-71
2022/02/27 11:35:35;;;;;;;;;;;24.60;25.80;;;;;;5090372;28;19924;-71
2022/02/27 11:38:03;;;;;;;;;;;24.60;25.80;;;;;;5087595;28;19924;-71
2022/02/27 11:40:38;;;;;;;;;;;24.60;25.80;;;;;;5090669;28;19982;-71
2022/02/27 11:43:05;;;;;;;;;;;24.70;25.80;;;;;;5087524;28;19978;-72
2022/02/27 11:45:52;;;;;;;;;;;24.70;25.80;;;;;;5090185;28;19973;-71
2022/02/27 11:48:39;;;;;;;;;;;24.70;25.80;;;;;;5083687;28;20078;-71
2022/02/27 11:51:32;;;;;;;;;;;24.70;25.80;;;;;;5090147;28;19924;-71
2022/02/27 11:57:22;;;;;;;;;;;24.70;25.80;;;;;;5088776;28;20415;-71
2022/02/27 11:59:50;;;;;;;;;;;24.70;25.80;;;;;;5089105;28;19989;-71
2022/02/27 12:02:36;;;;;;;;;;;24.70;25.80;;;;;;5088705;28;19932;-71
2022/02/27 12:05:04;;;;;;;;;;;24.70;25.80;;;;;;5089171;28;20320;-71
2022/02/27 12:07:51;;;;;;;;;;;24.70;25.80;;;;;;5088773;28;19928;-71
2022/02/27 12:10:40;;;;;;;;;;;24.70;25.80;;;;;;5089883;28;19924;-71
2022/02/27 12:13:28;;;;;;;;;;;24.70;25.70;;;;;;5087561;28;19931;-71
2022/02/27 12:16:03;;;;;;;;;;;24.70;25.70;;;;;;5103548;28;19925;-71
2022/02/27 12:18:30;;;;;;;;;;;24.70;25.70;;;;;;5087310;28;19970;-71
2022/02/27 12:20:59;;;;;;;;;;;24.80;25.70;;;;;;5090957;28;19928;-71
2022/02/27 12:23:44;;;;;;;;;;;24.80;25.70;;;;;;5087212;28;19924;-72
2022/02/27 12:26:31;;;;;;;;;;;24.80;25.70;;;;;;5089925;28;20313;-71
2022/02/27 12:32:24;;;;;;;;;;;24.90;25.60;;;;;;5088591;28;19923;-71
2022/02/27 12:34:53;;;;;;;;;;;24.90;25.50;;;;;;5089286;28;19928;-70
2022/02/27 12:37:22;;;;;;;;;;;25.00;25.50;;;;;;5088374;28;19927;-71
2022/02/27 12:39:50;;;;;;;;;;;25.10;25.40;;;;;;5088809;28;19924;-71
2022/02/27 12:42:18;;;;;;;;;;;25.10;25.40;;;;;;5088238;28;19969;-71
2022/02/27 12:44:47;;;;;;;;;;;25.10;25.30;;;;;;5088818;28;20361;-71
2022/02/27 12:47:15;;;;;;;;;;;25.20;25.30;;;;;;5088298;28;19928;-71
2022/02/27 12:52:37;;;;;;;;;;;25.30;25.30;;;;;;5087428;28;19955;-71
2022/02/27 12:55:09;;;;;;;;;;;25.30;25.20;;;;;;5088655;28;20011;-71
2022/02/27 12:57:40;;;;;;;;;;;25.30;25.20;;;;;;5103558;28;20331;-71
2022/02/27 13:00:08;;;;;;;;;;;25.30;25.60;;;;;;5088987;28;19924;-71
2022/02/27 13:02:35;;;;;;;;;;;25.40;25.10;;;;;;5087822;28;20005;-71
2022/02/27 13:05:04;;;;;;;;;;;25.40;25.10;;;;;;5088932;28;19924;-71
2022/02/27 13:07:31;;;;;;;;;;;25.40;25.10;;;;;;5087322;28;20395;-70
2022/02/27 13:09:58;;;;;;;;;;;25.40;25.10;;;;;;5088794;28;19924;-70
2022/02/27 13:12:30;;;;;;;;;;;25.40;25.10;;;;;;5087937;28;19970;-71
2022/02/27 13:14:58;;;;;;;;;;;25.40;25.10;;;;;;5088657;28;19931;-71
2022/02/27 13:17:33;;;;;;;;;;;25.40;25.10;;;;;;5089767;28;20156;-71
2022/02/27 13:20:05;;;;;;;;;;;25.40;25.10;;;;;;5092413;28;19931;-71
2022/02/27 13:22:35;;;;;;;;;;;25.40;25.10;;;;;;5090975;28;19932;-71
2022/02/27 13:25:09;;;;;;;;;;;25.40;25.10;;;;;;5107187;28;19931;-71
2022/02/27 13:27:41;;;;;;;;;;;25.40;25.10;;;;;;5091527;28;19928;-72
2022/02/27 13:30:10;;;;;;;;;;;25.40;25.00;;;;;;5092616;28;20277;-71
2022/02/27 13:32:38;;;;;;;;;;;25.40;25.00;;;;;;5091514;28;20030;-71
2022/02/27 13:35:08;;;;;;;;;;;25.40;25.00;;;;;;5092338;28;19983;-71
2022/02/27 13:37:38;;;;;;;;;;;25.40;25.40;;;;;;5091332;28;20292;-73
2022/02/27 13:40:10;;;;;;;;;;;25.40;25.00;;;;;;5092630;28;19989;-70
2022/02/27 13:42:38;;;;;;;;;;;25.40;25.00;;;;;;5090803;28;19931;-72
2022/02/27 13:45:12;;;;;;;;;;;25.40;25.00;;;;;;5092239;28;19924;-71
2022/02/27 13:47:45;;;;;;;;;;;25.40;25.00;;;;;;5090345;28;19928;-72
2022/02/27 13:50:17;;;;;;;;;;;25.40;25.00;;;;;;5092425;28;20353;-71
2022/02/27 13:52:45;;;;;;;;;;;25.50;25.00;;;;;;5090262;28;19977;-71
2022/02/27 13:55:20;;;;;;;;;;;25.50;25.40;;;;;;5091915;28;19924;-70
2022/02/27 13:57:47;;;;;;;;;;;25.40;24.90;;;;;;5093230;28;19992;-71
2022/02/27 14:00:15;;;;;;;;;;;25.40;24.90;;;;;;5092273;28;20120;-70
2022/02/27 14:02:43;;;;;;;;;;;25.40;24.90;;;;;;5090618;28;19932;-71
2022/02/27 14:05:20;;;;;;;;;;;25.40;24.90;;;;;;5091805;28;19924;-70
2022/02/27 14:07:49;;;;;;;;;;;25.40;24.90;;;;;;5090073;28;19928;-70
2022/02/27 14:10:22;;;;;;;;;;;25.40;24.90;;;;;;5091964;28;19924;-70
2022/02/27 14:12:58;;;;;;;;;;;25.40;24.90;;;;;;5089581;28;19924;-71
2022/02/27 14:15:26;;;;;;;;;;;25.40;24.90;;;;;;5091989;28;19932;-71
2022/02/27 14:17:53;;;;;;;;;;;25.40;25.00;;;;;;5089459;28;19969;-71
2022/02/27 14:20:27;;;;;;;;;;;25.30;24.80;;;;;;5091278;28;19955;-71
2022/02/27 14:23:08;;;;;;;;;;;25.30;24.80;;;;;;5089917;28;20011;-71
2022/02/27 14:25:40;;;;;;;;;;;25.30;24.80;;;;;;5091895;28;19924;-71
2022/02/27 14:28:11;;;;;;;;;;;25.30;24.80;;;;;;5089182;28;19993;-71
2022/02/27 14:30:38;;;;;;;;;;;25.20;24.80;;;;;;5091733;28;19924;-71
2022/02/27 14:33:06;;;;;;;;;;;25.30;24.80;;;;;;5089200;28;19928;-71
2022/02/27 14:35:34;;;;;;;;;;;25.30;24.80;;;;;;5074031;28;20219;-71
2022/02/27 14:38:01;;;;;;;;;;;25.30;24.80;;;;;;5089035;28;20525;-71
2022/02/27 14:40:28;;;;;;;;;;;25.30;24.80;;;;;;5091829;28;20324;-70
2022/02/27 14:42:55;;;;;;;;;;;25.30;24.80;;;;;;5088454;28;19928;-70
2022/02/27 14:45:23;;;;;;;;;;;25.30;24.70;;;;;;5091625;28;19924;-70
2022/02/27 14:47:52;;;;;;;;;;;25.30;24.80;;;;;;5071277;28;20168;-71
2022/02/27 14:53:23;;;;;;;;;;;25.30;24.70;;;;;;5088662;28;19924;-71
2022/02/27 14:55:50;;;;;;;;;;;25.30;24.80;;;;;;5091670;28;19924;-73
2022/02/27 14:58:18;;;;;;;;;;;25.20;24.70;;;;;;5088672;28;19974;-70
2022/02/27 15:00:45;;;;;;;;;;;25.20;24.70;;;;;;5091346;28;20438;-71
2022/02/27 15:03:18;;;;;;;;;;;25.20;24.70;;;;;;5088048;28;19924;-70
2022/02/27 15:05:46;;;;;;;;;;;25.20;24.70;;;;;;5091817;28;19932;-71
2022/02/27 15:08:13;;;;;;;;;;;25.20;24.70;;;;;;5091219;28;19939;-71
2022/02/27 15:10:40;;;;;;;;;;;25.10;24.70;;;;;;5091481;28;19968;-70
2022/02/27 15:13:07;;;;;;;;;;;25.10;24.70;;;;;;5087796;28;20013;-71
2022/02/27 15:15:34;;;;;;;;;;;25.10;24.70;;;;;;5090844;28;20422;-70
2022/02/27 15:18:02;;;;;;;;;;;25.10;24.70;;;;;;5087591;28;19924;-71
2022/02/27 15:20:29;;;;;;;;;;;25.00;24.70;;;;;;5090884;28;20340;-70
2022/02/27 15:22:57;;;;;;;;;;;25.00;24.70;;;;;;5088903;28;19976;-71
2022/02/27 15:32:18;;;;;;;;;;;24.90;24.70;;;;;;5089254;28;19965;-70
2022/02/27 15:34:45;;;;;;;;;;;24.90;24.70;;;;;;5090009;28;19924;-70
2022/02/27 15:37:13;;;;;;;;;;;24.90;24.70;;;;;;5088880;28;19924;-71